createdAt,value
2019-03-04T00:01:04.257Z,-2.15
2019-03-04T00:03:34.768Z,-2.09
2019-03-04T00:06:05.260Z,-2.16
2019-03-04T00:08:35.688Z,-2.11
2019-03-04T00:11:06.167Z,-2.14
2019-03-04T00:13:36.557Z,-2.19
2019-03-04T00:16:07.026Z,-2.22
2019-03-04T00:18:37.448Z,-2.23
2019-03-04T00:21:07.894Z,-2.20
2019-03-04T00:23:38.402Z,-2.18
2019-03-04T00:26:08.851Z,-2.17
2019-03-04T00:28:39.267Z,-2.15
2019-03-04T00:31:09.702Z,-2.21
2019-03-04T00:33:40.097Z,-2.23
2019-03-04T00:36:10.552Z,-2.21
2019-03-04T00:38:40.975Z,-2.25
2019-03-04T00:41:11.447Z,-2.16
2019-03-04T00:43:41.776Z,-2.14
2019-03-04T00:46:12.163Z,-2.10
2019-03-04T00:48:42.543Z,-2.14
2019-03-04T00:51:13.000Z,-2.19
2019-03-04T00:53:43.401Z,-2.15
2019-03-04T00:56:13.824Z,-2.05
2019-03-04T00:58:44.264Z,-2.07
2019-03-04T01:01:14.720Z,-2.14
2019-03-04T01:03:45.150Z,-2.07
2019-03-04T01:06:15.591Z,-2.14
2019-03-04T01:08:46.010Z,-2.19
2019-03-04T01:11:16.522Z,-2.17
2019-03-04T01:13:46.948Z,-2.26
2019-03-04T01:16:17.431Z,-2.33
2019-03-04T01:18:47.871Z,-2.32
2019-03-04T01:21:18.328Z,-2.39
2019-03-04T01:23:48.830Z,-2.43
2019-03-04T01:26:19.289Z,-2.44
2019-03-04T01:28:49.725Z,-2.43
2019-03-04T01:31:20.200Z,-2.49
2019-03-04T01:33:50.621Z,-2.53
2019-03-04T01:36:21.102Z,-2.52
2019-03-04T01:38:51.526Z,-2.53
2019-03-04T01:41:22.012Z,-2.57
2019-03-04T01:43:52.421Z,-2.54
2019-03-04T01:46:22.859Z,-2.53
2019-03-04T01:48:53.270Z,-2.56
2019-03-04T01:51:23.732Z,-2.55
2019-03-04T01:53:54.158Z,-2.60
2019-03-04T01:56:24.617Z,-2.62
2019-03-04T01:58:55.027Z,-2.60
2019-03-04T02:01:25.498Z,-2.59
2019-03-04T02:03:55.920Z,-2.59
2019-03-04T02:06:26.376Z,-2.58
2019-03-04T02:08:56.804Z,-2.58
2019-03-04T02:11:27.270Z,-2.48
2019-03-04T02:13:57.703Z,-2.45
2019-03-04T02:16:28.147Z,-2.45
2019-03-04T02:18:58.567Z,-2.40
2019-03-04T02:21:28.983Z,-2.38
2019-03-04T02:24:02.387Z,-2.33
2019-03-04T02:26:34.476Z,-2.34
2019-03-04T02:29:04.864Z,-2.28
2019-03-04T02:31:35.275Z,-2.23
2019-03-04T02:34:05.791Z,-2.15
2019-03-04T02:36:36.146Z,-2.19
2019-03-04T02:39:07.451Z,-2.09
2019-03-04T02:41:37.797Z,-2.06
2019-03-04T02:44:08.245Z,-2.03
2019-03-04T02:46:38.651Z,-2.04
2019-03-04T02:49:09.111Z,-1.98
2019-03-04T02:51:39.501Z,-1.89
2019-03-04T02:54:09.899Z,-1.86
2019-03-04T02:56:40.287Z,-1.77
2019-03-04T02:59:10.744Z,-1.78
2019-03-04T03:01:41.161Z,-1.79
2019-03-04T03:04:11.615Z,-1.76
2019-03-04T03:06:42.020Z,-1.70
2019-03-04T03:09:13.067Z,-1.70
2019-03-04T03:11:43.483Z,-1.68
2019-03-04T03:14:13.933Z,-1.73
2019-03-04T03:16:44.362Z,-1.75
2019-03-04T03:19:14.728Z,-1.78
2019-03-04T03:21:45.151Z,-1.74
2019-03-04T03:24:15.701Z,-1.73
2019-03-04T03:26:46.121Z,-1.69
2019-03-04T03:29:16.642Z,-1.67
2019-03-04T03:31:47.078Z,-1.61
2019-03-04T03:34:17.579Z,-1.52
2019-03-04T03:36:47.980Z,-1.53
2019-03-04T03:39:18.449Z,-1.54
2019-03-04T03:41:48.882Z,-1.55
2019-03-04T03:44:19.485Z,-1.55
2019-03-04T03:46:49.915Z,-1.54
2019-03-04T03:49:20.380Z,-1.56
2019-03-04T03:51:50.804Z,-1.57
2019-03-04T03:54:21.362Z,-1.55
2019-03-04T03:56:51.743Z,-1.58
2019-03-04T03:59:22.299Z,-1.55
2019-03-04T04:01:52.844Z,-1.59
2019-03-04T04:04:23.302Z,-1.57
2019-03-04T04:06:53.744Z,-1.59
2019-03-04T04:09:24.211Z,-1.58
2019-03-04T04:11:54.627Z,-1.60
2019-03-04T04:14:25.080Z,-1.57
2019-03-04T04:16:55.501Z,-1.62
2019-03-04T04:19:25.968Z,-1.55
2019-03-04T04:21:56.394Z,-1.62
2019-03-04T04:24:26.950Z,-1.55
2019-03-04T04:26:57.374Z,-1.53
2019-03-04T04:29:27.831Z,-1.55
2019-03-04T04:31:58.233Z,-1.51
2019-03-04T04:34:28.693Z,-1.50
2019-03-04T04:36:59.109Z,-1.50
2019-03-04T04:39:29.538Z,-1.47
2019-03-04T04:41:59.964Z,-1.49
2019-03-04T04:44:30.417Z,-1.46
2019-03-04T04:47:01.301Z,-1.46
2019-03-04T04:49:31.745Z,-1.46
2019-03-04T04:52:02.146Z,-1.41
2019-03-04T04:54:32.619Z,-1.36
2019-03-04T04:57:03.046Z,-1.38
2019-03-04T04:59:33.466Z,-1.33
2019-03-04T05:02:03.876Z,-1.28
2019-03-04T05:04:34.358Z,-1.24
2019-03-04T05:07:04.868Z,-1.21
2019-03-04T05:09:35.324Z,-1.09
2019-03-04T05:12:05.724Z,-1.05
2019-03-04T05:14:36.301Z,-0.98
2019-03-04T05:17:06.782Z,-0.89
2019-03-04T05:19:37.168Z,-0.73
2019-03-04T05:22:07.560Z,-0.65
2019-03-04T05:24:38.106Z,-0.54
2019-03-04T05:27:08.504Z,-0.48
2019-03-04T05:29:38.959Z,-0.46
2019-03-04T05:32:09.368Z,-0.34
2019-03-04T05:34:39.826Z,-0.33
2019-03-04T05:37:10.260Z,-0.26
2019-03-04T05:39:40.751Z,-0.23
2019-03-04T05:42:11.189Z,-0.15
2019-03-04T05:44:41.657Z,-0.05
2019-03-04T05:47:12.079Z,0.08
2019-03-04T05:49:42.469Z,0.14
2019-03-04T05:52:12.893Z,0.22
2019-03-04T05:54:43.359Z,0.29
2019-03-04T05:57:13.785Z,0.31
2019-03-04T05:59:44.258Z,0.33
2019-03-04T06:02:14.690Z,0.43
2019-03-04T06:04:45.150Z,0.47
2019-03-04T06:07:17.107Z,0.40
2019-03-04T06:09:47.571Z,0.54
2019-03-04T06:12:17.975Z,0.62
2019-03-04T06:14:48.446Z,0.65
2019-03-04T06:17:18.885Z,0.74
2019-03-04T06:19:49.356Z,0.77
2019-03-04T06:22:19.777Z,0.83
2019-03-04T06:24:50.296Z,0.96
2019-03-04T06:27:21.051Z,1.03
2019-03-04T06:29:51.504Z,1.12
2019-03-04T06:32:21.955Z,1.15
2019-03-04T06:34:52.334Z,1.03
2019-03-04T06:37:22.759Z,1.10
2019-03-04T06:39:53.204Z,1.11
2019-03-04T06:42:23.541Z,1.21
2019-03-04T06:44:53.980Z,1.44
2019-03-04T06:47:24.367Z,1.55
2019-03-04T06:49:54.824Z,1.65
2019-03-04T06:52:26.243Z,1.80
2019-03-04T06:55:02.303Z,2.13
2019-03-04T06:57:32.710Z,2.26
2019-03-04T07:00:24.230Z,2.30
2019-03-04T07:02:54.647Z,2.13
2019-03-04T07:05:45.456Z,2.21
2019-03-04T07:08:35.656Z,2.37
2019-03-04T07:11:06.460Z,2.44
2019-03-04T07:13:36.884Z,2.64
2019-03-04T07:16:07.339Z,2.45
2019-03-04T07:18:37.703Z,2.55
2019-03-04T07:21:08.177Z,2.72
2019-03-04T07:23:38.569Z,2.98
2019-03-04T07:26:09.613Z,3.08
2019-03-04T07:28:39.951Z,3.09
2019-03-04T07:31:10.413Z,3.09
2019-03-04T07:33:40.835Z,3.06
2019-03-04T07:36:11.289Z,3.06
2019-03-04T07:38:47.168Z,3.10
2019-03-04T07:41:17.618Z,3.23
2019-03-04T07:43:48.003Z,3.32
2019-03-04T07:46:18.479Z,3.43
2019-03-04T07:48:48.896Z,3.53
2019-03-04T07:51:19.760Z,3.61
2019-03-04T07:53:50.190Z,3.68
2019-03-04T07:56:23.117Z,3.62
2019-03-04T07:58:53.538Z,3.65
2019-03-04T08:01:24.014Z,3.71
2019-03-04T08:03:54.683Z,3.78
2019-03-04T08:06:25.174Z,3.96
2019-03-04T08:09:15.135Z,4.14
2019-03-04T08:12:11.124Z,4.05
2019-03-04T08:14:41.561Z,4.09
2019-03-04T08:17:12.053Z,4.19
2019-03-04T08:19:42.453Z,4.09
2019-03-04T08:22:12.896Z,4.08
2019-03-04T08:24:44.390Z,4.14
2019-03-04T08:27:15.063Z,4.21
2019-03-04T08:29:45.554Z,4.48
2019-03-04T08:32:17.223Z,4.55
2019-03-04T08:34:47.690Z,4.82
2019-03-04T08:37:18.173Z,5.10
2019-03-04T08:39:48.700Z,5.19
2019-03-04T08:42:20.063Z,5.14
2019-03-04T08:44:50.470Z,5.31
2019-03-04T08:47:20.925Z,5.24
2019-03-04T08:49:51.335Z,5.16
2019-03-04T08:52:21.981Z,5.38
2019-03-04T08:54:53.569Z,5.40
2019-03-04T08:57:24.004Z,5.40
2019-03-04T08:59:56.071Z,5.65
2019-03-04T09:02:26.562Z,5.82
2019-03-04T09:04:56.983Z,5.87
2019-03-04T09:07:27.445Z,6.01
2019-03-04T09:09:57.846Z,5.89
2019-03-04T09:12:28.351Z,5.94
2019-03-04T09:14:58.777Z,6.05
2019-03-04T09:17:29.234Z,6.07
2019-03-04T09:19:59.627Z,6.28
2019-03-04T09:22:30.105Z,6.29
2019-03-04T09:25:00.511Z,6.27
2019-03-04T09:27:31.088Z,6.26
2019-03-04T09:30:05.060Z,6.16
2019-03-04T09:32:40.011Z,6.21
2019-03-04T09:35:18.393Z,6.09
2019-03-04T09:37:48.853Z,6.12
2019-03-04T09:40:21.578Z,6.23
2019-03-04T09:42:54.319Z,6.24
2019-03-04T09:45:24.722Z,6.24
2019-03-04T09:47:55.408Z,6.38
2019-03-04T09:50:33.526Z,6.53
2019-03-04T09:53:04.264Z,6.51
2019-03-04T09:55:34.685Z,6.61
2019-03-04T09:58:05.183Z,6.60
2019-03-04T10:00:38.275Z,6.68
2019-03-04T10:03:26.997Z,6.72
2019-03-04T10:06:33.592Z,6.69
2019-03-04T10:09:12.699Z,6.73
2019-03-04T10:11:53.508Z,6.75
2019-03-04T10:14:35.598Z,6.78
2019-03-04T10:17:08.942Z,6.76
2019-03-04T10:20:00.477Z,6.77
2019-03-04T10:22:49.139Z,6.73
2019-03-04T10:25:38.605Z,6.55
2019-03-04T10:28:26.974Z,6.50
2019-03-04T10:31:33.521Z,6.55
2019-03-04T10:34:38.371Z,6.54
2019-03-04T10:37:17.723Z,6.61
2019-03-04T10:39:55.121Z,6.62
2019-03-04T10:42:47.731Z,6.62
2019-03-04T10:45:35.765Z,6.70
2019-03-04T10:48:08.974Z,6.71
2019-03-04T10:50:39.362Z,6.85
2019-03-04T10:53:09.843Z,6.96
2019-03-04T10:55:42.264Z,7.15
2019-03-04T10:58:12.419Z,7.12
2019-03-04T11:00:42.838Z,7.14
2019-03-04T11:03:13.288Z,7.18
2019-03-04T11:05:43.706Z,7.31
2019-03-04T11:08:23.518Z,7.35
2019-03-04T11:10:53.977Z,7.34
2019-03-04T11:13:24.454Z,7.40
2019-03-04T11:15:59.782Z,7.40
2019-03-04T11:18:30.234Z,7.52
2019-03-04T11:21:01.358Z,7.52
2019-03-04T11:23:31.839Z,7.51
2019-03-04T11:26:02.201Z,7.53
2019-03-04T11:28:32.762Z,7.49
2019-03-04T11:31:03.577Z,7.44
2019-03-04T11:33:34.161Z,7.41
2019-03-04T11:36:04.589Z,7.37
2019-03-04T11:38:40.916Z,7.43
2019-03-04T11:41:18.242Z,7.40
2019-03-04T11:44:14.627Z,7.49
2019-03-04T11:46:45.031Z,7.53
2019-03-04T11:49:18.412Z,7.52
2019-03-04T11:51:49.407Z,7.55
2019-03-04T11:54:21.930Z,7.52
2019-03-04T11:56:52.335Z,7.47
2019-03-04T11:59:26.116Z,7.50
2019-03-04T12:01:58.250Z,7.47
2019-03-04T12:04:31.970Z,7.47
2019-03-04T12:07:03.900Z,7.44
2019-03-04T12:09:34.336Z,7.48
2019-03-04T12:12:04.725Z,7.53
2019-03-04T12:14:36.740Z,7.53
2019-03-04T12:17:08.696Z,7.54
2019-03-04T12:19:39.146Z,7.50
2019-03-04T12:22:12.864Z,7.49
2019-03-04T12:24:43.348Z,7.50
2019-03-04T12:27:13.752Z,7.47
2019-03-04T12:29:44.803Z,7.43
2019-03-04T12:32:18.130Z,7.47
2019-03-04T12:34:59.327Z,7.47
2019-03-04T12:37:33.154Z,7.44
2019-03-04T12:40:07.751Z,7.43
2019-03-04T12:53:08.249Z,7.50
2019-03-04T12:55:38.665Z,7.44
2019-03-04T12:58:11.872Z,7.49
2019-03-04T13:00:42.349Z,7.47
2019-03-04T13:03:18.236Z,7.46
2019-03-04T13:05:48.745Z,7.48
2019-03-04T13:08:19.277Z,7.43
2019-03-04T13:10:49.691Z,7.41
2019-03-04T13:13:20.255Z,7.33
2019-03-04T13:15:50.617Z,7.29
2019-03-04T13:18:21.116Z,7.15
2019-03-04T13:20:51.546Z,7.02
2019-03-04T13:23:22.117Z,6.87
2019-03-04T13:25:52.562Z,6.75
2019-03-04T13:28:22.986Z,6.64
2019-03-04T13:30:53.578Z,6.58
2019-03-04T13:33:23.959Z,6.54
2019-03-04T13:35:54.404Z,6.54
2019-03-04T13:38:37.584Z,6.45
2019-03-04T13:41:24.261Z,6.42
2019-03-04T13:43:46.477Z,6.39
2019-03-04T13:46:16.958Z,6.37
2019-03-04T13:48:47.389Z,6.31
2019-03-04T13:51:17.937Z,6.35
2019-03-04T13:53:48.371Z,6.26
2019-03-04T13:56:18.832Z,6.27
2019-03-04T13:58:49.212Z,6.28
2019-03-04T14:01:19.673Z,6.31
2019-03-04T14:03:50.087Z,6.35
2019-03-04T14:06:20.526Z,6.41
2019-03-04T14:08:53.056Z,6.39
2019-03-04T14:11:32.015Z,6.37
2019-03-04T14:14:06.554Z,6.40
2019-03-04T14:16:37.006Z,6.33
2019-03-04T14:19:07.427Z,6.45
2019-03-04T14:21:38.128Z,6.48
2019-03-04T14:24:11.693Z,6.60
2019-03-04T14:26:42.158Z,6.59
2019-03-04T14:29:12.575Z,6.66
2019-03-04T14:31:43.079Z,6.67
2019-03-04T14:34:13.511Z,6.64
2019-03-04T14:36:43.971Z,6.67
2019-03-04T14:39:15.479Z,6.63
2019-03-04T14:41:45.963Z,6.62
2019-03-04T14:44:17.583Z,6.57
2019-03-04T14:46:49.294Z,6.59
2019-03-04T14:49:19.693Z,6.53
2019-03-04T14:51:50.789Z,6.50
2019-03-04T14:54:21.563Z,6.53
2019-03-04T14:56:52.053Z,6.43
2019-03-04T14:59:22.719Z,6.42
2019-03-04T15:01:54.879Z,6.28
2019-03-04T15:04:25.360Z,6.22
2019-03-04T15:06:56.126Z,6.18
2019-03-04T15:09:26.654Z,6.17
2019-03-04T15:11:57.129Z,6.11
2019-03-04T15:14:27.639Z,6.03
2019-03-04T15:17:03.397Z,5.99
2019-03-04T15:19:30.821Z,6.02
2019-03-04T15:22:01.458Z,5.97
2019-03-04T15:24:34.319Z,5.95
2019-03-04T15:27:06.513Z,5.88
2019-03-04T15:29:36.943Z,5.87
2019-03-04T15:32:09.485Z,5.89
2019-03-04T15:34:39.914Z,5.88
2019-03-04T15:37:10.595Z,5.92
2019-03-04T15:39:41.090Z,5.89
2019-03-04T15:42:11.535Z,5.91
2019-03-04T15:44:41.967Z,5.92
2019-03-04T15:47:12.423Z,5.98
2019-03-04T15:49:42.897Z,5.94
2019-03-04T15:52:13.386Z,5.98
2019-03-04T15:54:43.853Z,5.97
2019-03-04T15:57:15.614Z,5.92
2019-03-04T15:59:46.743Z,5.87
2019-03-04T16:02:17.583Z,5.87
2019-03-04T16:04:48.096Z,5.87
2019-03-04T16:07:18.527Z,5.86
2019-03-04T16:09:48.915Z,5.80
2019-03-04T16:12:21.243Z,5.86
2019-03-04T16:14:51.641Z,5.84
2019-03-04T16:17:22.103Z,5.72
2019-03-04T16:19:52.528Z,5.75
2019-03-04T16:22:22.976Z,5.73
2019-03-04T16:24:53.476Z,5.75
2019-03-04T16:27:23.978Z,5.86
2019-03-04T16:29:54.364Z,5.89
2019-03-04T16:32:25.831Z,5.87
2019-03-04T16:34:56.242Z,5.89
2019-03-04T16:37:26.701Z,5.81
2019-03-04T16:39:57.154Z,5.88
2019-03-04T16:42:27.705Z,5.83
2019-03-04T16:44:58.138Z,5.81
2019-03-04T16:47:28.677Z,5.79
2019-03-04T16:49:59.273Z,5.77
2019-03-04T16:52:29.739Z,5.85
2019-03-04T16:55:00.331Z,5.78
2019-03-04T16:57:30.803Z,5.78
2019-03-04T17:00:02.616Z,5.79
2019-03-04T17:02:33.399Z,5.81
2019-03-04T17:05:04.315Z,5.76
2019-03-04T17:07:34.793Z,5.75
2019-03-04T17:10:08.072Z,5.74
2019-03-04T17:12:38.627Z,5.63
2019-03-04T17:15:11.903Z,5.63
2019-03-04T17:17:42.370Z,5.63
2019-03-04T17:20:14.173Z,5.57
2019-03-04T17:22:44.906Z,5.55
2019-03-04T17:25:23.059Z,5.64
2019-03-04T17:27:53.538Z,5.58
2019-03-04T17:30:25.554Z,5.59
2019-03-04T17:32:57.192Z,5.52
2019-03-04T17:35:27.498Z,5.47
2019-03-04T17:37:57.949Z,5.38
2019-03-04T17:40:32.000Z,5.41
2019-03-04T17:43:02.426Z,5.41
2019-03-04T17:45:32.907Z,5.44
2019-03-04T17:48:03.366Z,5.41
2019-03-04T17:50:41.056Z,5.44
2019-03-04T17:53:13.102Z,5.38
2019-03-04T17:55:44.791Z,5.33
2019-03-04T17:58:15.244Z,5.26
2019-03-04T18:00:47.197Z,5.25
2019-03-04T18:03:17.573Z,5.21
2019-03-04T18:05:47.967Z,5.14
2019-03-04T18:08:18.414Z,5.08
2019-03-04T18:10:48.824Z,5.08
2019-03-04T18:13:19.327Z,5.00
2019-03-04T18:15:49.679Z,4.99
2019-03-04T18:18:20.128Z,4.91
2019-03-04T18:20:50.506Z,4.95
2019-03-04T18:23:20.949Z,4.86
2019-03-04T18:25:54.250Z,4.88
2019-03-04T18:28:46.603Z,4.82
2019-03-04T18:31:35.344Z,4.79
2019-03-04T18:34:32.512Z,4.77
2019-03-04T18:37:22.288Z,4.69
2019-03-04T18:40:16.761Z,4.65
2019-03-04T18:42:56.068Z,4.63
2019-03-04T18:45:51.943Z,4.62
2019-03-04T18:48:31.153Z,4.53
2019-03-04T18:51:01.590Z,4.63
2019-03-04T18:53:32.010Z,4.55
2019-03-04T18:56:02.563Z,4.51
2019-03-04T18:58:32.902Z,4.45
2019-03-04T19:01:03.365Z,4.49
2019-03-04T19:03:33.755Z,4.45
2019-03-04T19:06:04.232Z,4.45
2019-03-04T19:08:34.597Z,4.34
2019-03-04T19:11:05.171Z,4.31
2019-03-04T19:13:35.565Z,4.29
2019-03-04T19:16:06.335Z,4.20
2019-03-04T19:18:36.764Z,4.18
2019-03-04T19:21:07.244Z,4.22
2019-03-04T19:23:37.662Z,4.10
2019-03-04T19:26:08.227Z,4.06
2019-03-04T19:28:38.629Z,3.99
2019-03-04T19:31:09.194Z,4.04
2019-03-04T19:33:39.580Z,4.01
2019-03-04T19:36:11.039Z,3.94
2019-03-04T19:38:41.454Z,3.95
2019-03-04T19:41:11.898Z,3.98
2019-03-04T19:43:42.426Z,3.89
2019-03-04T19:46:12.876Z,3.96
2019-03-04T19:48:43.276Z,3.90
2019-03-04T19:51:13.837Z,3.91
2019-03-04T19:53:44.214Z,3.84
2019-03-04T19:56:14.666Z,3.80
2019-03-04T19:58:45.080Z,3.76
2019-03-04T20:01:15.487Z,3.73
2019-03-04T20:03:45.878Z,3.75
2019-03-04T20:06:16.307Z,3.69
2019-03-04T20:08:46.648Z,3.68
2019-03-04T20:11:17.102Z,3.66
2019-03-04T20:13:47.526Z,3.66
2019-03-04T20:16:17.956Z,3.55
2019-03-04T20:18:48.366Z,3.57
2019-03-04T20:21:18.822Z,3.56
2019-03-04T20:23:49.248Z,3.50
2019-03-04T20:26:19.737Z,3.55
2019-03-04T20:28:50.177Z,3.49
2019-03-04T20:31:20.644Z,3.48
2019-03-04T20:33:51.068Z,3.43
2019-03-04T20:36:22.443Z,3.45
2019-03-04T20:38:52.859Z,3.39
2019-03-04T20:41:23.231Z,3.41
2019-03-04T20:43:53.637Z,3.35
2019-03-04T20:46:24.093Z,3.29
2019-03-04T20:48:54.447Z,3.30
2019-03-04T20:51:24.920Z,3.24
2019-03-04T20:53:55.334Z,3.21
2019-03-04T20:56:25.805Z,3.23
2019-03-04T20:58:56.215Z,3.20
2019-03-04T21:01:26.775Z,3.22
2019-03-04T21:03:57.166Z,3.19
2019-03-04T21:06:27.807Z,3.12
2019-03-04T21:08:58.227Z,3.17
2019-03-04T21:11:28.705Z,3.20
2019-03-04T21:13:59.112Z,3.12
2019-03-04T21:16:29.578Z,3.14
2019-03-04T21:19:00.084Z,3.10
2019-03-04T21:21:30.548Z,3.06
2019-03-04T21:24:01.214Z,3.02
2019-03-04T21:26:31.772Z,3.03
2019-03-04T21:29:08.048Z,2.99
2019-03-04T21:31:53.544Z,2.95
2019-03-04T21:34:43.047Z,3.01
2019-03-04T21:37:17.543Z,2.98
2019-03-04T21:40:16.654Z,2.97
2019-03-04T21:42:55.820Z,2.95
2019-03-04T21:45:47.271Z,2.92
2019-03-04T21:48:23.349Z,2.90
2019-03-04T21:51:19.034Z,2.86
2019-03-04T21:53:51.387Z,2.82
2019-03-04T21:56:42.879Z,2.79
2019-03-04T21:59:13.248Z,2.78
2019-03-04T22:01:46.560Z,2.75
2019-03-04T22:04:16.995Z,2.71
2019-03-04T22:06:47.387Z,2.72
2019-03-04T22:09:17.816Z,2.69
2019-03-04T22:11:48.217Z,2.63
2019-03-04T22:14:18.649Z,2.65
2019-03-04T22:16:49.063Z,2.60
2019-03-04T22:19:19.446Z,2.61
2019-03-04T22:21:49.843Z,2.62
2019-03-04T22:24:20.306Z,2.58
2019-03-04T22:26:50.703Z,2.59
2019-03-04T22:29:21.105Z,2.58
2019-03-04T22:31:51.509Z,2.57
2019-03-04T22:34:21.908Z,2.53
2019-03-04T22:36:52.315Z,2.54
2019-03-04T22:39:23.762Z,2.52
2019-03-04T22:41:54.139Z,2.51
2019-03-04T22:44:24.543Z,2.50
2019-03-04T22:46:54.947Z,2.47
2019-03-04T22:49:25.404Z,2.52
2019-03-04T22:51:55.783Z,2.50
2019-03-04T22:54:26.251Z,2.46
2019-03-04T22:56:56.653Z,2.44
2019-03-04T22:59:27.100Z,2.43
2019-03-04T23:01:58.313Z,2.44
2019-03-04T23:04:28.748Z,2.42
2019-03-04T23:07:04.742Z,2.39
2019-03-04T23:09:47.014Z,2.32
2019-03-04T23:12:35.331Z,2.36
2019-03-04T23:15:08.714Z,2.33
2019-03-04T23:17:39.122Z,2.31
2019-03-04T23:20:09.587Z,2.30
2019-03-04T23:22:39.987Z,2.35
2019-03-04T23:25:13.143Z,2.33
2019-03-04T23:27:43.535Z,2.36
2019-03-04T23:30:15.823Z,2.30
2019-03-04T23:32:46.211Z,2.29
2019-03-04T23:35:16.664Z,2.34
2019-03-04T23:37:47.074Z,2.35
2019-03-04T23:40:18.519Z,2.38
2019-03-04T23:42:48.899Z,2.41
2019-03-04T23:45:19.356Z,2.37
2019-03-04T23:47:49.772Z,2.39
2019-03-04T23:53:16.387Z,2.44
2019-03-04T23:55:46.778Z,2.49
2019-03-04T23:58:17.248Z,2.53
